Time;durP1;ratioP1;P1;durP2;ratioP2;P2;SDS_P1;SDS_P2;PMS_P1;PMS_P2;Temp;Humidity;BMP_temperature;BMP_pressure;BME280_temperature;BME280_humidity;BME280_pressure;Samples;Min_cycle;Max_cycle;Signal;HPM_P1;HPM_P2
2021/12/21 00:02:24;;;;;;;18.00;5.07;;;-2.00;99.90;;;;;;5117944;28;20408;-88
2021/12/21 00:04:49;;;;;;;16.43;5.37;;;-2.10;99.90;;;;;;5099832;28;20546;-89
2021/12/21 00:07:15;;;;;;;16.43;5.50;;;-2.20;99.90;;;;;;5099481;28;20436;-89
2021/12/21 00:09:41;;;;;;;19.53;5.63;;;-2.10;99.90;;;;;;5099047;28;20274;-89
2021/12/21 00:12:08;;;;;;;15.40;5.63;;;-2.10;99.90;;;;;;5099363;28;20173;-87
2021/12/21 00:17:18;;;;;;;14.03;5.13;;;-2.10;99.90;;;;;;5117189;28;20857;-89
2021/12/21 00:24:55;;;;;;;18.47;5.60;;;-2.20;99.90;;;;;;5085550;28;20324;-88
2021/12/21 00:27:21;;;;;;;15.10;5.17;;;-2.30;99.90;;;;;;5098756;28;20849;-87
2021/12/21 00:29:47;;;;;;;20.77;8.10;;;-2.20;99.90;;;;;;5117339;28;20619;-89
2021/12/21 00:32:13;;;;;;;20.70;9.80;;;-2.30;99.90;;;;;;5099139;28;20448;-89
2021/12/21 00:34:39;;;;;;;23.57;9.83;;;-2.30;99.90;;;;;;5099376;28;20189;-88
2021/12/21 00:37:05;;;;;;;26.73;7.90;;;-2.30;99.90;;;;;;5117442;28;20605;-87
2021/12/21 00:39:31;;;;;;;20.40;8.20;;;-2.30;99.90;;;;;;5098240;28;20426;-90
2021/12/21 00:41:57;;;;;;;29.03;10.73;;;-2.30;99.90;;;;;;5098708;28;20990;-89
2021/12/21 00:44:22;;;;;;;28.47;12.83;;;-2.30;99.90;;;;;;5098620;28;20642;-89
2021/12/21 00:46:48;;;;;;;21.10;10.80;;;-2.40;99.90;;;;;;5098439;28;20422;-89
2021/12/21 00:49:15;;;;;;;24.57;10.23;;;-2.40;99.90;;;;;;5098711;28;20216;-88
2021/12/21 00:51:46;;;;;;;33.83;12.40;;;-2.40;99.90;;;;;;5099403;28;20315;-88
2021/12/21 00:54:12;;;;;;;29.20;9.57;;;-2.40;99.90;;;;;;5098387;28;20414;-87
2021/12/21 00:56:38;;;;;;;22.63;7.30;;;-2.40;99.90;;;;;;5116305;28;20454;-88
2021/12/21 00:59:05;;;;;;;17.17;6.10;;;-2.30;99.90;;;;;;5098266;28;20410;-88
2021/12/21 01:01:32;;;;;;;23.43;7.10;;;-2.30;99.90;;;;;;5098453;28;20183;-88
2021/12/21 01:04:00;;;;;;;17.17;5.40;;;-2.30;99.90;;;;;;5098051;28;20791;-88
2021/12/21 01:06:39;;;;;;;18.83;6.43;;;-2.10;99.90;;;;;;5097792;28;20979;-90
2021/12/21 01:09:21;;;;;;;16.70;6.07;;;-2.00;99.90;;;;;;5098029;28;20401;-86
2021/12/21 01:11:52;;;;;;;15.10;5.30;;;-2.10;99.90;;;;;;5098760;28;20924;-89
2021/12/21 01:17:03;;;;;;;15.97;5.70;;;-2.10;99.90;;;;;;5116314;28;20499;-88
2021/12/21 01:19:37;;;;;;;12.20;5.33;;;-2.20;99.90;;;;;;5097709;28;20406;-89
2021/12/21 01:22:18;;;;;;;13.43;5.13;;;-2.20;99.90;;;;;;5096876;28;20414;-89
2021/12/21 01:30:12;;;;;;;11.33;4.90;;;-2.30;99.90;;;;;;5115539;28;20454;-88
2021/12/21 01:35:13;;;;;;;15.97;6.47;;;-2.40;99.90;;;;;;5116076;28;20446;-89
2021/12/21 01:38:01;;;;;;;17.50;5.20;;;-2.50;99.90;;;;;;5097518;28;20194;-87
2021/12/21 01:43:10;;;;;;;12.03;5.13;;;-2.50;99.90;;;;;;5115328;28;20753;-88
2021/12/21 01:51:07;;;;;;;12.97;5.33;;;-2.70;99.90;;;;;;5115576;28;21012;-87
2021/12/21 01:53:33;;;;;;;12.27;5.63;;;-2.70;99.90;;;;;;5114869;28;20394;-87
2021/12/21 01:56:00;;;;;;;10.23;5.07;;;-2.70;99.90;;;;;;5096744;28;20564;-88
2021/12/21 01:58:26;;;;;;;17.80;5.47;;;-2.80;99.90;;;;;;5096521;28;20496;-88
2021/12/21 02:00:52;;;;;;;9.50;5.03;;;-2.70;99.90;;;;;;5096608;28;20410;-88
2021/12/21 02:03:18;;;;;;;12.40;4.93;;;-2.80;99.90;;;;;;5096656;28;20207;-89
2021/12/21 02:05:44;;;;;;;12.10;5.30;;;-2.80;99.90;;;;;;5096411;28;20186;-87
2021/12/21 02:08:09;;;;;;;14.40;5.30;;;-2.70;99.90;;;;;;5114814;28;20424;-87
2021/12/21 02:10:35;;;;;;;11.60;5.13;;;-2.80;99.90;;;;;;5096559;28;20237;-89
2021/12/21 02:13:01;;;;;;;12.90;5.07;;;-2.80;99.90;;;;;;5096844;28;20679;-88
2021/12/21 02:15:28;;;;;;;13.83;5.30;;;-2.90;99.90;;;;;;5115303;28;20603;-87
2021/12/21 02:20:43;;;;;;;9.73;4.57;;;-2.90;99.90;;;;;;5115502;28;20497;-89
2021/12/21 02:23:21;;;;;;;10.97;4.23;;;-3.00;99.90;;;;;;5096788;28;20419;-90
2021/12/21 02:30:55;;;;;;;7.10;4.63;;;-3.00;99.90;;;;;;5115155;28;20473;-88
2021/12/21 02:33:22;;;;;;;11.07;5.73;;;-3.10;99.90;;;;;;5097020;28;20411;-89
2021/12/21 02:35:49;;;;;;;12.73;5.30;;;-3.20;99.90;;;;;;5100784;28;20502;-87
2021/12/21 02:38:14;;;;;;;6.77;4.20;;;-3.10;99.90;;;;;;5100769;28;20430;-87
2021/12/21 02:40:40;;;;;;;9.67;5.03;;;-3.20;99.90;;;;;;5100549;28;20993;-89
2021/12/21 02:43:09;;;;;;;8.53;5.30;;;-3.20;99.90;;;;;;5100618;28;20634;-88
2021/12/21 02:45:34;;;;;;;17.93;4.90;;;-3.10;99.90;;;;;;5100529;28;20996;-88
2021/12/21 02:48:00;;;;;;;17.87;8.60;;;-3.40;99.90;;;;;;5100547;28;20433;-89
2021/12/21 02:50:26;;;;;;;14.03;5.77;;;-3.30;99.90;;;;;;5100421;28;20199;-88
2021/12/21 02:52:51;;;;;;;13.73;6.03;;;-3.40;99.90;;;;;;5100826;28;20180;-89
2021/12/21 02:55:17;;;;;;;12.50;5.50;;;-3.40;99.90;;;;;;5100719;28;20642;-88
2021/12/21 02:57:43;;;;;;;11.07;5.77;;;-3.40;99.90;;;;;;5100304;28;20301;-89
2021/12/21 03:00:09;;;;;;;12.20;5.60;;;-3.40;99.90;;;;;;5100741;28;20476;-88
2021/12/21 03:02:36;;;;;;;14.73;5.37;;;-3.40;99.90;;;;;;5100462;28;20178;-88
2021/12/21 03:05:02;;;;;;;12.00;5.70;;;-3.50;99.90;;;;;;5099821;28;20967;-87
2021/12/21 03:10:24;;;;;;;12.57;4.70;;;-3.60;99.90;;;;;;5093863;28;20520;-86
2021/12/21 03:15:18;;;;;;;8.70;4.60;;;-3.50;99.90;;;;;;5118255;28;20456;-87
2021/12/21 03:17:44;;;;;;;10.03;4.53;;;-1.50;99.90;;;;;;5099355;28;20436;-87
2021/12/21 03:20:10;;;;;;;12.00;5.53;;;-3.50;99.90;;;;;;5099240;28;20414;-86
2021/12/21 03:22:36;;;;;;;9.53;5.37;;;-3.50;99.90;;;;;;5099241;28;20605;-88
2021/12/21 03:25:02;;;;;;;10.50;5.17;;;-3.60;99.90;;;;;;5099559;28;20672;-88
2021/12/21 03:27:28;;;;;;;19.37;5.47;;;-3.50;99.90;;;;;;5099552;28;20198;-88
2021/12/21 03:29:53;;;;;;;10.30;5.00;;;-3.40;99.90;;;;;;5099787;28;20482;-88
2021/12/21 03:32:22;;;;;;;13.80;5.23;;;-3.40;99.90;;;;;;5099826;28;20179;-88
2021/12/21 03:34:47;;;;;;;18.13;5.57;;;-3.40;99.90;;;;;;5099096;28;20717;-89
2021/12/21 03:37:14;;;;;;;12.53;5.00;;;-3.40;99.90;;;;;;5099268;28;20517;-87
2021/12/21 03:39:45;;;;;;;12.13;4.97;;;-3.40;99.90;;;;;;5098907;28;20181;-87
2021/12/21 03:42:13;;;;;;;9.20;5.07;;;-3.40;99.90;;;;;;5099634;28;20420;-88
2021/12/21 03:44:39;;;;;;;15.50;5.27;;;-3.30;99.90;;;;;;5099624;28;20416;-87
2021/12/21 03:47:05;;;;;;;11.13;5.17;;;-3.40;99.90;;;;;;5100168;28;20527;-88
2021/12/21 03:52:02;;;;;;;16.37;5.80;;;-3.30;99.90;;;;;;5118142;28;20418;-88
2021/12/21 03:54:28;;;;;;;10.67;5.57;;;-3.30;99.90;;;;;;5099978;28;20451;-88
2021/12/21 03:56:54;;;;;;;13.43;5.70;;;-3.40;99.90;;;;;;5099849;28;20456;-87
2021/12/21 03:59:21;;;;;;;14.17;6.23;;;-3.40;99.90;;;;;;5099576;28;20208;-89
2021/12/21 04:01:47;;;;;;;14.73;6.10;;;-3.40;99.90;;;;;;5099528;28;20182;-88
2021/12/21 04:04:13;;;;;;;14.50;5.87;;;-3.50;99.90;;;;;;5117549;28;20908;-89
2021/12/21 04:06:39;;;;;;;12.67;6.20;;;-3.50;99.90;;;;;;5099180;28;20441;-87
2021/12/21 04:09:06;;;;;;;10.43;6.30;;;-3.40;99.90;;;;;;5098701;28;20240;-89
2021/12/21 04:11:32;;;;;;;16.23;7.37;;;-3.30;99.90;;;;;;5098402;28;20175;-89
2021/12/21 04:13:59;;;;;;;12.20;6.10;;;-3.30;99.90;;;;;;5098640;28;20469;-88
2021/12/21 04:16:25;;;;;;;16.50;6.20;;;-3.30;99.90;;;;;;5098495;28;20582;-88
2021/12/21 04:18:50;;;;;;;13.07;5.90;;;-3.20;99.90;;;;;;5101050;28;20412;-89
2021/12/21 04:21:16;;;;;;;18.57;6.60;;;-3.30;99.90;;;;;;5098788;28;20428;-88
2021/12/21 04:23:43;;;;;;;17.10;6.40;;;-3.30;99.90;;;;;;5098513;28;20182;-88
2021/12/21 04:26:10;;;;;;;11.50;5.67;;;-3.40;99.90;;;;;;5099015;28;20255;-88
2021/12/21 04:28:36;;;;;;;14.03;5.97;;;-3.30;99.90;;;;;;5098821;28;20440;-88
2021/12/21 04:31:03;;;;;;;9.80;6.20;;;-3.30;99.90;;;;;;5098618;28;20604;-87
2021/12/21 04:33:28;;;;;;;13.73;6.37;;;-3.30;99.90;;;;;;5098526;28;20188;-88
2021/12/21 04:35:54;;;;;;;10.07;5.47;;;-3.40;99.90;;;;;;5098865;28;20507;-89
2021/12/21 04:38:26;;;;;;;12.80;5.60;;;-3.40;99.90;;;;;;5099228;28;20198;-88
2021/12/21 04:41:00;;;;;;;15.67;6.20;;;-3.40;99.90;;;;;;5098987;28;20544;-88
2021/12/21 04:43:25;;;;;;;12.77;6.00;;;-3.40;99.90;;;;;;5098619;28;20779;-87
2021/12/21 04:45:51;;;;;;;9.63;6.30;;;-3.40;99.90;;;;;;5116989;28;20422;-88
2021/12/21 04:48:17;;;;;;;15.47;6.37;;;-3.40;99.90;;;;;;5098388;28;20210;-88
2021/12/21 04:50:45;;;;;;;10.23;5.93;;;-3.50;99.90;;;;;;5098443;28;20209;-90
2021/12/21 04:53:12;;;;;;;9.93;5.63;;;-3.50;99.90;;;;;;5098828;28;20638;-88
2021/12/21 04:55:38;;;;;;;12.40;5.00;;;-3.70;99.90;;;;;;5098038;28;20431;-87
2021/12/21 04:58:04;;;;;;;11.00;5.33;;;-3.60;99.90;;;;;;5097638;28;20519;-88
2021/12/21 05:00:30;;;;;;;13.87;5.33;;;-3.60;99.90;;;;;;5098754;28;20224;-88
2021/12/21 05:02:57;;;;;;;9.30;5.70;;;-3.50;99.90;;;;;;5098686;28;20420;-89
2021/12/21 05:05:23;;;;;;;14.57;5.60;;;-3.50;99.90;;;;;;5100024;28;20178;-90
2021/12/21 05:07:54;;;;;;;9.77;4.93;;;-3.70;99.90;;;;;;5100510;28;20490;-90
2021/12/21 05:10:20;;;;;;;10.83;5.23;;;-3.60;99.90;;;;;;5099634;28;20460;-88
2021/12/21 05:12:46;;;;;;;9.87;5.03;;;-3.60;99.90;;;;;;5097905;28;20408;-87
2021/12/21 05:15:12;;;;;;;8.13;5.20;;;-3.70;99.90;;;;;;5098223;28;20546;-89
2021/12/21 05:17:39;;;;;;;8.20;5.30;;;-3.70;99.90;;;;;;5098520;28;20514;-88
2021/12/21 05:20:05;;;;;;;10.10;5.90;;;-3.70;99.90;;;;;;5098236;28;20505;-88
2021/12/21 05:22:31;;;;;;;12.57;5.13;;;-3.80;99.90;;;;;;5098329;28;20420;-87
2021/12/21 05:24:56;;;;;;;12.30;5.70;;;-3.80;99.90;;;;;;5097936;28;20427;-88
2021/12/21 05:27:23;;;;;;;12.60;5.93;;;-3.80;99.90;;;;;;5098670;28;20666;-88
2021/12/21 05:29:49;;;;;;;15.73;6.23;;;-3.80;99.90;;;;;;5098867;28;20595;-88
2021/12/21 05:32:14;;;;;;;8.03;5.40;;;-3.80;99.90;;;;;;5099159;28;20779;-89
2021/12/21 05:34:40;;;;;;;11.47;5.63;;;-3.70;99.90;;;;;;5099553;28;20420;-88
2021/12/21 05:37:07;;;;;;;11.40;5.53;;;-3.90;99.90;;;;;;5099331;28;20265;-89
2021/12/21 05:42:22;;;;;;;10.70;5.97;;;-3.40;99.90;;;;;;5117410;28;20419;-88
2021/12/21 05:44:54;;;;;;;13.83;6.03;;;-3.70;99.90;;;;;;5098788;28;20769;-87
2021/12/21 05:47:19;;;;;;;12.83;6.23;;;-3.90;99.90;;;;;;5098812;28;20539;-90
2021/12/21 05:49:45;;;;;;;14.40;6.40;;;-3.80;99.90;;;;;;5099571;28;20512;-88
2021/12/21 05:52:11;;;;;;;12.30;6.00;;;-4.00;99.90;;;;;;5098728;28;20651;-87
2021/12/21 05:54:37;;;;;;;11.13;5.90;;;-4.00;99.90;;;;;;5098615;28;20182;-89
2021/12/21 05:57:03;;;;;;;11.33;5.47;;;-3.90;99.90;;;;;;5098937;28;20470;-88
2021/12/21 05:59:29;;;;;;;11.90;5.50;;;-3.90;99.90;;;;;;5100313;28;20194;-88
2021/12/21 06:01:55;;;;;;;9.97;5.43;;;-4.00;99.90;;;;;;5100021;28;20473;-89
2021/12/21 06:04:21;;;;;;;9.90;5.57;;;-4.00;99.90;;;;;;5100405;28;20265;-90
2021/12/21 06:06:47;;;;;;;9.40;5.67;;;-4.10;99.90;;;;;;5100079;28;20440;-90
2021/12/21 06:09:14;;;;;;;8.97;5.30;;;-4.00;99.90;;;;;;5103586;28;20431;-89
2021/12/21 06:11:55;;;;;;;14.43;7.20;;;-4.00;99.90;;;;;;5123136;28;20519;-88
2021/12/21 06:23:26;;;;;;;13.67;6.03;;;-4.10;99.90;;;;;;5118567;28;20423;-89
2021/12/21 06:26:02;;;;;;;14.77;6.37;;;-2.90;99.90;;;;;;5123421;28;20426;-90
2021/12/21 06:28:28;;;;;;;11.27;6.00;;;-4.10;99.90;;;;;;5104888;28;20471;-89
2021/12/21 06:30:54;;;;;;;15.07;7.20;;;-4.10;99.90;;;;;;5103747;28;20494;-90
2021/12/21 06:33:20;;;;;;;11.37;6.60;;;-4.10;99.90;;;;;;5103739;28;20273;-90
2021/12/21 06:35:46;;;;;;;12.83;6.27;;;-4.20;99.90;;;;;;5103236;28;20703;-89
2021/12/21 06:38:12;;;;;;;11.80;6.10;;;-4.10;99.90;;;;;;5121998;28;20473;-91
2021/12/21 06:40:37;;;;;;;19.70;7.63;;;-4.00;99.90;;;;;;5103672;28;20547;-88
2021/12/21 06:43:12;;;;;;;12.60;6.30;;;-4.00;99.90;;;;;;5108180;28;20202;-90
2021/12/21 06:53:32;;;;;;;18.53;7.33;;;-3.90;99.90;;;;;;5120947;28;20757;-89
2021/12/21 06:55:58;;;;;;;15.03;6.80;;;-4.40;99.90;;;;;;5103459;28;20424;-88
2021/12/21 06:58:23;;;;;;;18.90;7.77;;;-4.00;99.90;;;;;;5103926;28;20304;-89
2021/12/21 07:00:50;;;;;;;16.23;8.60;;;-4.00;99.90;;;;;;5103660;28;20193;-89
2021/12/21 07:03:16;;;;;;;13.33;7.43;;;-4.00;99.90;;;;;;5103904;28;20186;-89
2021/12/21 07:05:41;;;;;;;15.23;7.37;;;-3.40;99.90;;;;;;5104241;28;20428;-90
2021/12/21 07:08:12;;;;;;;14.50;6.80;;;-4.10;99.90;;;;;;5103731;28;20197;-90
2021/12/21 07:10:39;;;;;;;18.30;7.30;;;-4.10;99.90;;;;;;5104171;28;20676;-90
2021/12/21 07:18:34;;;;;;;17.27;6.93;;;-4.20;99.90;;;;;;5121146;28;20435;-88
2021/12/21 07:21:00;;;;;;;12.50;7.47;;;-4.10;99.90;;;;;;5102095;28;20428;-88
2021/12/21 07:23:26;;;;;;;21.30;8.23;;;-4.10;99.90;;;;;;5100018;28;20193;-89
2021/12/21 07:25:53;;;;;;;22.27;7.80;;;-4.20;99.90;;;;;;5118412;28;20416;-88
2021/12/21 07:28:18;;;;;;;14.57;8.40;;;-4.20;99.90;;;;;;5099578;28;20977;-89
2021/12/21 07:30:47;;;;;;;13.63;7.30;;;-4.20;99.90;;;;;;5099059;28;20508;-89
2021/12/21 07:33:13;;;;;;;14.47;7.13;;;-4.20;99.90;;;;;;5099471;28;20219;-90
2021/12/21 07:35:38;;;;;;;12.53;7.03;;;-4.20;99.90;;;;;;5099133;28;20420;-89
2021/12/21 07:38:04;;;;;;;15.27;6.57;;;-4.20;99.90;;;;;;5099180;28;20502;-89
2021/12/21 07:40:30;;;;;;;17.37;7.43;;;-4.30;99.90;;;;;;5098866;28;20246;-90
2021/12/21 07:42:55;;;;;;;13.87;7.27;;;-4.30;99.90;;;;;;5098625;28;20189;-91
2021/12/21 07:45:21;;;;;;;13.47;6.93;;;-4.10;99.90;;;;;;5098534;28;20319;-89
2021/12/21 07:47:47;;;;;;;13.10;6.43;;;-4.60;99.90;;;;;;5098439;28;20255;-89
2021/12/21 07:50:13;;;;;;;13.67;7.30;;;-4.30;99.90;;;;;;5098417;28;20548;-90
2021/12/21 07:52:39;;;;;;;15.83;7.23;;;-4.30;99.90;;;;;;5098090;28;20187;-90
2021/12/21 07:55:05;;;;;;;18.63;7.93;;;-4.30;99.90;;;;;;5098222;28;20412;-90
2021/12/21 07:57:31;;;;;;;16.97;7.50;;;-4.30;99.90;;;;;;5098145;28;20590;-88
2021/12/21 07:59:58;;;;;;;14.00;6.73;;;-4.30;99.90;;;;;;5116603;28;20416;-90
2021/12/21 08:02:26;;;;;;;16.37;7.43;;;-4.30;99.90;;;;;;5098281;28;20510;-89
2021/12/21 08:04:52;;;;;;;12.70;7.30;;;-4.30;99.90;;;;;;5116605;28;20416;-90
2021/12/21 08:07:24;;;;;;;15.70;7.87;;;-4.30;99.90;;;;;;5098177;28;20431;-90
2021/12/21 08:09:54;;;;;;;15.83;7.83;;;-4.30;99.90;;;;;;5098078;28;20543;-89
2021/12/21 08:12:20;;;;;;;14.20;7.17;;;-4.30;99.90;;;;;;5098189;28;20444;-90
2021/12/21 08:14:48;;;;;;;14.50;7.73;;;-4.20;99.90;;;;;;5098385;28;20427;-90
2021/12/21 08:17:14;;;;;;;15.57;9.60;;;-4.20;99.90;;;;;;5098534;28;20507;-90
2021/12/21 08:19:40;;;;;;;14.10;7.17;;;-4.20;99.90;;;;;;5098483;28;20448;-90
2021/12/21 08:22:06;;;;;;;14.63;6.90;;;-4.30;99.90;;;;;;5098227;28;20759;-91
2021/12/21 08:24:33;;;;;;;16.20;8.30;;;-4.20;99.90;;;;;;5098114;28;20633;-90
2021/12/21 08:27:00;;;;;;;17.93;8.83;;;-4.10;99.90;;;;;;5097502;28;20231;-91
2021/12/21 08:29:29;;;;;;;25.17;11.73;;;-4.10;99.90;;;;;;5097861;28;20466;-91
2021/12/21 08:31:54;;;;;;;36.83;17.17;;;-4.10;99.90;;;;;;5116153;28;20404;-89
2021/12/21 08:34:21;;;;;;;28.27;14.90;;;-4.10;99.90;;;;;;5098796;28;20908;-89
2021/12/21 08:36:47;;;;;;;28.47;14.50;;;-4.00;99.90;;;;;;5097408;28;20225;-90
2021/12/21 08:39:12;;;;;;;23.53;11.67;;;-3.90;99.90;;;;;;5097356;28;20489;-91
2021/12/21 08:41:42;;;;;;;37.30;22.20;;;-3.90;99.90;;;;;;5097210;28;20261;-90
2021/12/21 08:44:10;;;;;;;32.00;17.83;;;-3.90;99.90;;;;;;5097261;28;20231;-90
2021/12/21 08:46:36;;;;;;;20.53;13.20;;;-3.80;99.90;;;;;;5097026;28;20420;-89
2021/12/21 08:49:02;;;;;;;22.77;13.17;;;-3.80;99.90;;;;;;5097125;28;20847;-90
2021/12/21 08:51:28;;;;;;;25.77;15.50;;;-3.80;99.90;;;;;;5096992;28;20498;-89
2021/12/21 08:53:54;;;;;;;23.03;10.70;;;-3.80;99.90;;;;;;5097080;28;20448;-90
2021/12/21 08:56:19;;;;;;;19.20;8.70;;;-3.70;99.90;;;;;;5096887;28;20174;-90
2021/12/21 08:58:45;;;;;;;16.10;8.03;;;-3.70;99.90;;;;;;5097316;28;20263;-90
2021/12/21 09:01:10;;;;;;;17.60;9.10;;;-3.60;99.90;;;;;;5097060;28;20175;-90
2021/12/21 09:03:37;;;;;;;18.77;9.80;;;-3.60;99.90;;;;;;5096911;28;20188;-89
2021/12/21 09:06:03;;;;;;;18.50;8.67;;;-3.60;99.90;;;;;;5097177;28;20187;-88
2021/12/21 09:08:28;;;;;;;15.17;8.43;;;-2.50;99.90;;;;;;5097410;28;20447;-90
2021/12/21 09:11:02;;;;;;;16.60;8.43;;;-3.50;99.90;;;;;;5097545;28;20550;-90
2021/12/21 09:13:27;;;;;;;14.37;8.00;;;-3.50;99.90;;;;;;5097272;28;20170;-90
2021/12/21 09:15:53;;;;;;;22.23;8.57;;;-3.50;99.90;;;;;;5096783;28;20415;-88
2021/12/21 09:18:18;;;;;;;13.27;7.50;;;-3.40;99.90;;;;;;5100575;28;20198;-89
2021/12/21 09:20:44;;;;;;;15.33;7.67;;;-3.30;99.90;;;;;;5102267;28;20212;-90
2021/12/21 09:23:10;;;;;;;26.03;7.30;;;-3.30;99.90;;;;;;5101958;28;20186;-89
2021/12/21 09:25:35;;;;;;;21.93;7.43;;;-3.00;99.90;;;;;;5103189;28;20200;-89
2021/12/21 09:28:01;;;;;;;18.73;8.00;;;-3.00;99.90;;;;;;5101373;28;20201;-87
2021/12/21 09:30:30;;;;;;;21.63;10.13;;;-2.80;99.90;;;;;;5099772;28;20293;-91
2021/12/21 09:32:57;;;;;;;12.73;7.40;;;-2.70;99.90;;;;;;5096968;28;20175;-88
2021/12/21 09:35:23;;;;;;;20.50;8.40;;;-2.60;99.90;;;;;;5099163;28;20511;-89
2021/12/21 09:37:50;;;;;;;16.93;8.10;;;-2.50;99.90;;;;;;5117768;28;20424;-90
2021/12/21 09:40:22;;;;;;;14.90;7.80;;;-2.50;99.90;;;;;;5100253;28;20423;-90
2021/12/21 09:42:48;;;;;;;14.07;8.07;;;-2.20;99.90;;;;;;5100465;28;20790;-88
2021/12/21 09:45:14;;;;;;;21.43;8.57;;;-2.20;99.90;;;;;;5117070;28;20408;-89
2021/12/21 09:47:40;;;;;;;16.27;8.83;;;-2.00;99.90;;;;;;5099012;28;20521;-90
2021/12/21 09:50:09;;;;;;;17.33;9.30;;;-1.90;99.90;;;;;;5098921;28;20463;-90
2021/12/21 09:52:35;;;;;;;17.27;8.43;;;-1.80;99.90;;;;;;5099136;28;20175;-89
2021/12/21 09:55:04;;;;;;;20.60;9.63;;;-1.70;99.90;;;;;;5099216;28;20416;-88
2021/12/21 09:57:30;;;;;;;13.67;8.80;;;-0.10;99.90;;;;;;5098458;28;20455;-90
2021/12/21 09:59:55;;;;;;;14.90;8.23;;;-1.50;99.90;;;;;;5117620;28;20408;-88
2021/12/21 10:02:25;;;;;;;13.93;7.97;;;-1.60;99.90;;;;;;5099374;28;20183;-90
2021/12/21 10:04:55;;;;;;;18.50;7.77;;;-1.40;99.90;;;;;;5099629;28;20179;-89
2021/12/21 10:07:22;;;;;;;14.30;7.67;;;-1.30;99.90;;;;;;5099148;28;20440;-89
2021/12/21 10:09:49;;;;;;;16.87;8.73;;;-1.30;99.90;;;;;;5098213;28;20460;-91
2021/12/21 10:12:38;;;;;;;13.83;8.97;;;-1.20;99.90;;;;;;5098219;28;20416;-90
2021/12/21 10:15:14;;;;;;;19.53;7.97;;;-1.10;99.90;;;;;;5098357;28;20457;-90
2021/12/21 10:17:57;;;;;;;18.80;8.07;;;-1.00;99.90;;;;;;5098623;28;20440;-89
2021/12/21 10:20:34;;;;;;;17.43;6.73;;;-1.00;99.90;;;;;;5099768;28;20419;-90
2021/12/21 10:23:06;;;;;;;16.17;8.57;;;-0.80;99.90;;;;;;5097862;28;20507;-91
2021/12/21 10:25:32;;;;;;;18.13;7.77;;;-0.80;99.90;;;;;;5098069;28;20408;-90
2021/12/21 10:27:57;;;;;;;18.17;9.70;;;-0.70;99.90;;;;;;5099184;28;20461;-91
2021/12/21 10:30:23;;;;;;;26.13;10.97;;;-0.60;99.90;;;;;;5097744;28;20567;-89
2021/12/21 10:32:52;;;;;;;21.17;11.27;;;-0.60;99.90;;;;;;5097094;28;20193;-89
2021/12/21 10:35:18;;;;;;;24.73;12.67;;;-0.50;99.90;;;;;;5097909;28;20179;-91
2021/12/21 10:37:44;;;;;;;24.17;13.50;;;-0.40;99.90;;;;;;5097722;28;20444;-91
2021/12/21 10:40:24;;;;;;;22.57;11.93;;;-0.40;99.90;;;;;;5098113;28;20560;-91
2021/12/21 10:43:10;;;;;;;23.63;13.47;;;-0.30;99.90;;;;;;5097586;28;20468;-90
2021/12/21 10:45:42;;;;;;;25.57;13.07;;;-0.20;99.90;;;;;;5096903;28;20437;-90
2021/12/21 10:48:18;;;;;;;24.00;14.03;;;-0.10;99.90;;;;;;5096298;28;20477;-89
2021/12/21 10:50:46;;;;;;;20.23;11.73;;;-0.10;99.90;;;;;;5096228;28;20452;-91
2021/12/21 10:53:24;;;;;;;28.47;14.07;;;0.00;99.90;;;;;;5096271;28;20416;-90
2021/12/21 10:56:06;;;;;;;22.97;13.93;;;0.10;99.90;;;;;;5098491;28;20464;-88
2021/12/21 10:58:42;;;;;;;22.53;12.27;;;0.20;99.90;;;;;;5100181;28;20501;-89
2021/12/21 11:01:20;;;;;;;17.73;12.07;;;0.20;99.90;;;;;;5100355;28;20422;-90
2021/12/21 11:03:55;;;;;;;18.70;12.63;;;0.30;99.90;;;;;;5100155;28;20427;-89
2021/12/21 11:06:34;;;;;;;24.77;13.90;;;0.30;99.90;;;;;;5100542;28;20517;-89
2021/12/21 11:09:04;;;;;;;21.80;12.63;;;0.40;99.90;;;;;;5099994;28;20407;-89
2021/12/21 11:11:44;;;;;;;22.87;13.17;;;0.50;99.90;;;;;;5099696;28;20826;-89
2021/12/21 11:14:15;;;;;;;22.47;12.80;;;0.40;99.90;;;;;;5099950;28;20439;-88
2021/12/21 11:16:49;;;;;;;20.93;13.23;;;0.60;99.90;;;;;;5099452;28;20431;-88
2021/12/21 11:19:17;;;;;;;19.20;10.63;;;0.60;99.90;;;;;;5099634;28;20415;-89
2021/12/21 11:21:44;;;;;;;17.77;10.77;;;0.60;99.90;;;;;;5099646;28;20999;-88
2021/12/21 11:24:13;;;;;;;16.27;10.53;;;0.70;99.90;;;;;;5100233;28;20481;-89
2021/12/21 11:26:40;;;;;;;15.87;9.90;;;0.80;99.90;;;;;;5099708;28;20420;-89
2021/12/21 11:29:09;;;;;;;12.83;7.40;;;0.80;99.90;;;;;;5099803;28;20421;-90
2021/12/21 11:31:43;;;;;;;15.40;8.27;;;0.90;99.90;;;;;;5117838;28;20456;-88
2021/12/21 11:34:17;;;;;;;13.10;6.20;;;0.90;99.90;;;;;;5118293;28;20384;-90
2021/12/21 11:39:33;;;;;;;15.27;9.43;;;0.40;99.90;;;;;;5118360;28;20388;-89
2021/12/21 11:42:04;;;;;;;15.73;9.43;;;1.10;99.90;;;;;;5099626;28;20428;-89
2021/12/21 11:44:52;;;;;;;19.60;8.87;;;1.20;99.90;;;;;;5117790;28;20408;-88
2021/12/21 11:47:39;;;;;;;21.23;10.57;;;1.20;99.90;;;;;;5117996;28;20460;-89
2021/12/21 11:50:08;;;;;;;14.30;9.30;;;1.30;99.90;;;;;;5099334;28;20822;-88
2021/12/21 11:52:52;;;;;;;14.13;8.20;;;1.40;99.90;;;;;;5099053;28;20413;-88
2021/12/21 11:55:21;;;;;;;16.73;8.07;;;1.40;99.90;;;;;;5099179;28;20404;-90
2021/12/21 11:57:51;;;;;;;16.27;8.47;;;1.40;99.90;;;;;;5098645;28;20456;-89
2021/12/21 12:00:21;;;;;;;14.83;7.67;;;1.50;99.90;;;;;;5098974;28;20791;-90
2021/12/21 12:02:49;;;;;;;15.17;7.63;;;1.50;99.90;;;;;;5099024;28;20425;-88
2021/12/21 12:05:27;;;;;;;11.47;6.50;;;1.50;99.90;;;;;;5098525;28;20423;-88
2021/12/21 12:08:12;;;;;;;12.23;6.87;;;1.60;99.90;;;;;;5099006;28;20459;-89
2021/12/21 12:10:46;;;;;;;10.90;6.00;;;1.70;99.90;;;;;;5098901;28;20454;-88
2021/12/21 12:13:25;;;;;;;10.53;6.10;;;1.70;99.90;;;;;;5099360;28;20490;-87
2021/12/21 12:16:17;;;;;;;8.80;5.00;;;1.80;99.90;;;;;;5099292;28;20417;-89
2021/12/21 12:18:44;;;;;;;11.43;5.73;;;1.90;99.90;;;;;;5099260;28;21053;-88
2021/12/21 12:21:29;;;;;;;9.77;5.43;;;1.90;99.90;;;;;;5099705;28;20478;-90
2021/12/21 12:24:04;;;;;;;7.90;5.00;;;2.00;99.90;;;;;;5100220;28;20418;-89
2021/12/21 12:26:39;;;;;;;13.47;5.23;;;2.00;99.90;;;;;;5099880;28;20422;-87
2021/12/21 12:29:13;;;;;;;14.53;5.60;;;2.10;99.90;;;;;;5100312;28;20694;-89
2021/12/21 12:31:41;;;;;;;11.47;5.50;;;2.10;99.90;;;;;;5100867;28;20197;-89
2021/12/21 12:34:08;;;;;;;7.80;4.83;;;2.10;99.90;;;;;;5101288;28;20181;-88
2021/12/21 12:36:35;;;;;;;8.83;5.07;;;2.20;99.90;;;;;;5101117;28;20208;-86
2021/12/21 12:39:01;;;;;;;8.63;4.77;;;2.30;99.90;;;;;;5101746;28;20182;-90
2021/12/21 12:41:26;;;;;;;11.70;4.70;;;2.30;99.90;;;;;;5120667;28;20238;-88
2021/12/21 12:43:52;;;;;;;10.27;4.60;;;2.30;99.90;;;;;;5102059;28;20182;-89
2021/12/21 12:46:27;;;;;;;9.50;4.73;;;2.40;99.90;;;;;;5103001;28;20178;-90
2021/12/21 12:48:53;;;;;;;12.00;5.57;;;2.40;99.90;;;;;;5101031;28;20271;-87
2021/12/21 12:51:36;;;;;;;11.43;4.97;;;2.40;99.90;;;;;;5100468;28;20658;-88
2021/12/21 12:54:15;;;;;;;13.13;5.73;;;2.50;99.90;;;;;;5100687;28;20629;-87
2021/12/21 12:56:41;;;;;;;8.50;5.10;;;2.50;99.90;;;;;;5099344;28;20245;-88
2021/12/21 12:59:07;;;;;;;13.47;5.83;;;3.60;99.90;;;;;;5100446;28;20195;-89
2021/12/21 13:01:40;;;;;;;9.37;5.37;;;2.60;99.90;;;;;;5099514;28;20193;-88
2021/12/21 13:04:10;;;;;;;12.70;5.90;;;2.70;99.90;;;;;;5100393;28;20178;-89
2021/12/21 13:06:37;;;;;;;9.10;5.33;;;2.70;99.90;;;;;;5100206;28;20564;-89
2021/12/21 13:09:08;;;;;;;12.80;5.77;;;2.80;99.90;;;;;;5100131;28;20186;-88
2021/12/21 13:11:36;;;;;;;13.83;4.97;;;2.80;99.90;;;;;;5099551;28;20235;-89
2021/12/21 13:14:03;;;;;;;6.43;4.20;;;2.80;99.90;;;;;;5099388;28;20186;-88
2021/12/21 13:16:32;;;;;;;13.83;4.57;;;2.90;99.90;;;;;;5117410;28;20174;-89
2021/12/21 13:19:04;;;;;;;7.70;4.03;;;4.70;99.90;;;;;;5098501;28;20178;-88
2021/12/21 13:21:33;;;;;;;8.77;4.37;;;3.00;99.90;;;;;;5099035;28;20178;-87
2021/12/21 13:24:09;;;;;;;7.57;4.43;;;4.20;99.90;;;;;;5099569;28;20182;-89
2021/12/21 13:26:40;;;;;;;7.40;3.83;;;3.00;99.90;;;;;;5099635;28;20174;-88
2021/12/21 13:29:09;;;;;;;10.13;3.67;;;3.00;99.90;;;;;;5097532;28;20239;-89
2021/12/21 13:31:35;;;;;;;5.17;3.57;;;2.80;99.90;;;;;;5115264;28;20604;-89
2021/12/21 13:34:01;;;;;;;6.37;3.70;;;3.70;99.90;;;;;;5097518;28;20186;-89
2021/12/21 13:36:41;;;;;;;7.63;4.07;;;3.10;99.90;;;;;;5100599;28;20178;-88
2021/12/21 13:39:22;;;;;;;9.63;5.27;;;3.00;99.90;;;;;;5104245;28;20166;-87
2021/12/21 13:41:53;;;;;;;10.53;6.50;;;3.10;99.90;;;;;;5103810;28;20185;-87
2021/12/21 13:44:23;;;;;;;12.03;6.33;;;3.10;99.90;;;;;;5106058;28;20544;-88
2021/12/21 13:46:49;;;;;;;12.03;7.63;;;3.10;99.90;;;;;;5102046;28;20242;-89
2021/12/21 13:49:14;;;;;;;12.03;7.00;;;3.00;99.90;;;;;;5099515;28;20268;-89
2021/12/21 13:51:53;;;;;;;17.00;8.77;;;3.00;99.90;;;;;;5097799;28;20258;-89
2021/12/21 13:54:20;;;;;;;16.63;10.27;;;3.00;99.90;;;;;;5099231;28;20193;-87
2021/12/21 13:56:48;;;;;;;19.63;11.00;;;3.00;99.90;;;;;;5118024;28;20298;-87